Terminal Aerodrome Forecast
Issued by NWS Jacksonville, FL

Home | Current Version | Previous Version | Text Only | Print | Product List | Glossary On
Versions: 1 2 3 4 5 6 7 8 9 10 11 12 13 14 15 16 17 18 19
000
FTUS42 KJAX 170200 AAA
TAFJAX
TAF AMD
KJAX 170244Z 1703/1724 24005KT P6SM VCSH SCT008 BKN015 BKN100
      TEMPO 1703/1707 BKN008
     FM171400 31005KT P6SM VCSH FEW020 SCT120 BKN250
     FM171900 04006KT P6SM VCTS SCT035CB=

USA.gov is the U.S. government's official web portal to all federal, state and local government web resources and services.